Time;durP1;ratioP1;P1;durP2;ratioP2;P2;SDS_P1;SDS_P2;PMS_P1;PMS_P2;Temp;Humidity;BMP_temperature;BMP_pressure;BME280_temperature;BME280_humidity;BME280_pressure;Samples;Min_cycle;Max_cycle;Signal;HPM_P1;HPM_P2
2021/05/12 00:00:47;;;;;;;2.50;2.30;;;;;;;11.62;100.00;154343.75;5052983;28;20931;-93
2021/05/12 00:03:22;;;;;;;3.13;2.23;;;;;;;11.63;100.00;154347.63;5054276;28;20446;-94
2021/05/12 00:05:58;;;;;;;2.47;2.10;;;;;;;11.62;100.00;154343.75;5054173;28;20445;-94
2021/05/12 00:08:33;;;;;;;2.83;2.50;;;;;;;11.60;100.00;154338.53;5053233;28;20434;-94
2021/05/12 00:11:08;;;;;;;2.10;1.90;;;;;;;11.60;100.00;154338.53;5055022;28;20460;-94
2021/05/12 00:13:44;;;;;;;2.17;1.97;;;;;;;11.59;100.00;154337.28;5053714;28;20463;-94
2021/05/12 00:16:20;;;;;;;3.20;2.60;;;;;;;11.60;100.00;154339.84;5054623;28;20446;-93
2021/05/12 00:18:55;;;;;;;2.20;2.00;;;;;;;11.59;100.00;154335.97;5053364;28;20530;-94
2021/05/12 00:21:33;;;;;;;2.47;1.90;;;;;;;11.60;100.00;154338.53;5054056;28;20534;-94
2021/05/12 00:24:09;;;;;;;2.30;2.10;;;;;;;11.62;100.00;154345.00;5053804;28;20900;-93
2021/05/12 00:26:44;;;;;;;2.17;1.97;;;;;;;11.61;100.00;154341.16;5052711;28;20555;-94
2021/05/12 00:29:20;;;;;;;3.97;2.40;;;;;;;11.59;100.00;154335.97;5053617;28;20442;-94
2021/05/12 00:31:56;;;;;;;2.10;1.90;;;;;;;11.59;100.00;154337.28;5055270;28;20431;-94
2021/05/12 00:34:31;;;;;;;2.50;2.23;;;;;;;11.61;100.00;154341.16;5054357;28;20468;-94
2021/05/12 00:37:06;;;;;;;2.50;2.30;;;;;;;11.59;100.00;154337.28;5054642;28;20436;-94
2021/05/12 00:39:41;;;;;;;2.80;2.37;;;;;;;11.60;100.00;154339.84;5054235;28;20468;-94
2021/05/12 00:42:16;;;;;;;2.40;2.20;;;;;;;11.62;100.00;154345.00;5059719;28;20416;-94
2021/05/12 00:44:52;;;;;;;2.50;2.30;;;;;;;11.65;100.00;154351.50;5064754;28;20824;-93
2021/05/12 00:47:29;;;;;;;2.67;2.47;;;;;;;11.62;100.00;154343.75;5071978;28;20447;-93
2021/05/12 00:50:06;;;;;;;2.67;2.47;;;;;;;11.59;100.00;154335.97;5071111;28;20923;-93
2021/05/12 00:52:41;;;;;;;3.23;2.27;;;;;;;11.63;100.00;154346.31;5056196;28;20441;-93
2021/05/12 00:55:17;;;;;;;3.50;2.40;;;;;;;11.58;100.00;154334.66;5055571;28;20479;-94
2021/05/12 00:57:52;;;;;;;2.67;2.20;;;;;;;11.57;100.00;154332.06;5053695;28;20438;-94
2021/05/12 01:00:28;;;;;;;3.43;2.00;;;;;;;11.49;100.00;154310.06;5070691;28;20463;-94
2021/05/12 01:03:04;;;;;;;2.27;2.03;;;;;;;11.50;100.00;154312.63;5057492;28;20438;-94
2021/05/12 01:05:58;;;;;;;3.17;1.90;;;;;;;11.49;100.00;154310.06;5056306;28;20478;-94
2021/05/12 01:08:33;;;;;;;2.90;1.90;;;;;;;11.46;100.00;154302.28;5056213;28;20447;-94
2021/05/12 01:11:09;;;;;;;3.50;2.07;;;;;;;11.38;100.00;154282.84;5074263;28;20442;-94
2021/05/12 01:13:44;;;;;;;5.90;2.07;;;;;;;11.36;100.00;154277.63;5057077;28;20840;-94
2021/05/12 01:16:19;;;;;;;5.23;1.57;;;;;;;11.31;100.00;154263.38;5057492;28;20434;-94
2021/05/12 01:18:55;;;;;;;2.30;1.60;;;;;;;11.21;100.00;154238.78;5056209;28;20450;-94
2021/05/12 01:21:32;;;;;;;2.53;2.10;;;;;;;11.24;100.00;154246.56;5041134;28;20446;-94
2021/05/12 01:24:07;;;;;;;2.07;1.87;;;;;;;11.19;100.00;154232.31;5041352;28;20449;-95
2021/05/12 01:26:42;;;;;;;2.40;1.50;;;;;;;11.23;100.00;154242.66;5055949;28;20481;-95
2021/05/12 01:29:18;;;;;;;2.60;1.50;;;;;;;11.22;100.00;154240.09;5056161;28;20436;-94
2021/05/12 01:31:54;;;;;;;2.67;1.70;;;;;;;11.18;100.00;154229.72;5056200;28;20847;-94
2021/05/12 01:34:28;;;;;;;2.30;1.73;;;;;;;11.19;100.00;154232.31;5056044;28;20909;-94
2021/05/12 01:37:04;;;;;;;1.70;1.57;;;;;;;11.13;100.00;154216.75;5040396;28;20583;-93
2021/05/12 01:39:39;;;;;;;3.70;1.63;;;;;;;11.11;100.00;154211.59;5076412;28;20410;-93
2021/05/12 01:42:14;;;;;;;1.90;1.70;;;;;;;11.02;100.00;154190.84;5077977;28;20429;-94
2021/05/12 01:44:49;;;;;;;1.70;1.60;;;;;;;11.04;100.00;154193.47;5059928;28;20827;-93
2021/05/12 01:47:24;;;;;;;1.47;1.37;;;;;;;11.00;100.00;154185.69;5077748;28;20429;-94
2021/05/12 01:50:01;;;;;;;3.40;1.90;;;;;;;10.98;100.00;154180.53;5060024;28;20421;-94
2021/05/12 01:52:39;;;;;;;2.07;1.83;;;;;;;10.99;100.00;154183.09;5060062;28;20425;-94
2021/05/12 01:55:16;;;;;;;2.50;1.77;;;;;;;10.95;100.00;154172.75;5059828;28;20529;-93
2021/05/12 01:57:51;;;;;;;2.30;2.03;;;;;;;10.87;100.00;154152.03;5059395;28;20931;-93
2021/05/12 02:00:28;;;;;;;5.37;2.33;;;;;;;10.88;100.00;154153.31;5059407;28;20461;-94
2021/05/12 02:03:05;;;;;;;2.50;2.30;;;;;;;10.87;100.00;154152.03;5059389;28;20849;-94
2021/05/12 02:05:42;;;;;;;4.03;3.30;;;;;;;10.77;100.00;154126.13;5059834;28;20528;-93
2021/05/12 02:08:21;;;;;;;6.07;3.53;;;;;;;10.83;100.00;154141.63;5059377;28;20433;-93
2021/05/12 02:10:57;;;;;;;2.53;2.33;;;;;;;10.80;100.00;154133.84;5077496;28;20436;-94
2021/05/12 02:13:33;;;;;;;4.40;2.77;;;;;;;10.80;100.00;154133.84;5077131;28;20449;-94
2021/05/12 02:16:08;;;;;;;3.53;3.20;;;;;;;10.81;100.00;154136.47;5059394;28;20533;-94
2021/05/12 02:18:44;;;;;;;4.90;3.70;;;;;;;10.76;100.00;154122.22;5059367;28;20441;-94
2021/05/12 02:21:19;;;;;;;5.73;3.20;;;;;;;10.77;100.00;154126.13;5059346;28;20433;-94
2021/05/12 02:23:56;;;;;;;3.73;2.60;;;;;;;10.78;100.00;154128.69;5059354;28;21035;-95
2021/05/12 02:26:31;;;;;;;4.83;3.10;;;;;;;10.73;100.00;154114.44;5043906;28;20450;-95
2021/05/12 02:29:06;;;;;;;3.00;2.70;;;;;;;10.72;100.00;154113.13;5043955;28;20438;-95
2021/05/12 02:31:41;;;;;;;3.30;3.00;;;;;;;10.69;100.00;154104.09;5043816;28;20437;-95
2021/05/12 02:34:17;;;;;;;4.50;3.10;;;;;;;10.71;100.00;154110.56;5059816;28;20438;-95
2021/05/12 02:36:52;;;;;;;3.67;3.37;;;;;;;10.69;100.00;154104.09;5044093;28;20426;-95
2021/05/12 02:39:29;;;;;;;3.97;2.73;;;;;;;10.65;100.00;154095.03;5044545;28;20793;-95
2021/05/12 02:42:05;;;;;;;4.47;3.57;;;;;;;10.66;100.00;154097.63;5044459;28;20470;-93
2021/05/12 02:44:40;;;;;;;5.63;3.83;;;;;;;10.65;100.00;154095.03;5047427;28;20465;-93
2021/05/12 02:47:16;;;;;;;4.73;3.40;;;;;;;10.55;100.00;154069.13;5062322;28;20466;-94
2021/05/12 02:49:51;;;;;;;4.67;4.10;;;;;;;10.57;100.00;154074.31;5045233;28;20434;-95
2021/05/12 02:52:26;;;;;;;3.80;3.40;;;;;;;10.54;100.00;154066.53;5059058;28;20476;-96
2021/05/12 02:55:03;;;;;;;5.30;4.10;;;;;;;10.56;100.00;154070.44;5043631;28;20438;-95
2021/05/12 02:57:38;;;;;;;4.43;3.70;;;;;;;10.57;100.00;154074.31;5043694;28;20416;-95
2021/05/12 03:00:15;;;;;;;5.17;3.57;;;;;;;10.56;100.00;154071.75;5039510;28;20470;-94
2021/05/12 03:02:50;;;;;;;4.47;3.83;;;;;;;10.53;100.00;154063.97;5057284;28;20783;-94
2021/05/12 03:05:26;;;;;;;7.03;4.30;;;;;;;10.47;100.00;154048.41;5056859;28;20456;-95
2021/05/12 03:08:01;;;;;;;4.53;3.93;;;;;;;10.50;100.00;154054.88;5041129;28;20438;-94
2021/05/12 03:10:38;;;;;;;5.90;4.70;;;;;;;10.51;100.00;154058.75;5055531;28;20443;-94
2021/05/12 03:13:13;;;;;;;5.30;3.93;;;;;;;10.49;100.00;154052.28;5055555;28;20441;-94
2021/05/12 03:15:48;;;;;;;5.80;4.70;;;;;;;10.49;100.00;154053.59;5039852;28;20442;-94
2021/05/12 03:18:26;;;;;;;5.17;4.40;;;;;;;10.49;100.00;154053.59;5054502;28;20944;-94
2021/05/12 03:21:00;;;;;;;6.13;5.50;;;;;;;10.45;100.00;154043.25;5060243;28;20440;-93
2021/05/12 03:23:35;;;;;;;8.80;5.90;;;;;;;10.45;100.00;154043.25;5075154;28;20450;-93
2021/05/12 03:26:11;;;;;;;5.97;5.33;;;;;;;10.45;100.00;154043.25;5076628;28;20523;-92
2021/05/12 03:28:46;;;;;;;7.73;5.67;;;;;;;10.38;100.00;154025.09;5082860;28;20442;-93
2021/05/12 03:31:22;;;;;;;8.80;6.70;;;;;;;10.44;100.00;154040.63;5072242;28;20428;-92
2021/05/12 03:33:57;;;;;;;7.00;5.27;;;;;;;10.44;100.00;154039.34;5099450;28;20414;-93
2021/05/12 03:36:32;;;;;;;8.50;6.10;;;;;;;10.40;100.00;154030.31;5076409;28;20516;-93
2021/05/12 03:39:07;;;;;;;7.03;6.30;;;;;;;10.40;100.00;154030.31;5074507;28;20431;-93
2021/05/12 03:41:43;;;;;;;8.67;6.13;;;;;;;10.42;100.00;154034.16;5074522;28;20437;-93
2021/05/12 03:44:18;;;;;;;9.00;6.13;;;;;;;10.46;100.00;154044.56;5074830;28;20456;-92
2021/05/12 03:46:53;;;;;;;7.53;6.10;;;;;;;10.42;100.00;154035.47;5074982;28;20447;-92
2021/05/12 03:49:28;;;;;;;10.33;7.23;;;;;;;10.40;100.00;154030.31;5075978;28;20440;-92
2021/05/12 03:52:04;;;;;;;10.40;7.30;;;;;;;10.37;100.00;154023.84;5074757;28;20440;-92
2021/05/12 03:54:39;;;;;;;7.50;6.80;;;;;;;10.38;100.00;154025.09;5074145;28;20435;-92
2021/05/12 03:57:15;;;;;;;8.40;6.33;;;;;;;10.40;100.00;154030.31;5072965;28;20440;-92
2021/05/12 03:59:50;;;;;;;9.13;7.03;;;;;;;10.39;100.00;154029.00;5053271;28;20482;-92
2021/05/12 04:02:26;;;;;;;10.60;6.73;;;;;;;10.35;100.00;154018.63;5053421;28;20485;-93
2021/05/12 04:05:01;;;;;;;9.80;7.57;;;;;;;10.39;100.00;154029.00;5061043;28;20824;-93
2021/05/12 04:07:36;;;;;;;10.27;7.43;;;;;;;10.39;100.00;154029.00;5074940;28;20426;-92
2021/05/12 04:10:11;;;;;;;8.07;6.70;;;;;;;10.39;100.00;154027.69;5074101;28;20437;-92
2021/05/12 04:12:47;;;;;;;9.57;7.77;;;;;;;10.37;100.00;154023.84;5074351;28;20941;-92
2021/05/12 04:15:23;;;;;;;9.43;7.43;;;;;;;10.38;100.00;154025.09;5073496;28;20456;-92
2021/05/12 04:17:58;;;;;;;10.30;8.33;;;;;;;10.38;100.00;154025.09;5074208;28;20851;-92
2021/05/12 04:20:33;;;;;;;9.40;7.70;;;;;;;10.39;100.00;154029.00;5074184;28;20966;-92
2021/05/12 04:23:09;;;;;;;11.17;7.50;;;;;;;10.41;100.00;154032.88;5075050;28;20452;-93
2021/05/12 04:25:44;;;;;;;9.40;7.80;;;;;;;10.46;100.00;154045.81;5058600;28;20476;-92
2021/05/12 04:28:20;;;;;;;9.40;7.87;;;;;;;10.46;100.00;154045.81;5073550;28;20492;-91
2021/05/12 04:30:55;;;;;;;9.93;7.10;;;;;;;10.48;100.00;154051.03;5073742;28;20454;-92
2021/05/12 04:33:30;;;;;;;23.37;8.67;;;;;;;10.46;100.00;154045.81;5075169;28;20449;-92
2021/05/12 04:36:06;;;;;;;8.40;6.47;;;;;;;10.45;100.00;154043.25;5074349;28;20455;-92
2021/05/12 04:38:41;;;;;;;7.60;6.40;;;;;;;10.47;100.00;154048.41;5075614;28;20511;-92
2021/05/12 04:41:18;;;;;;;10.47;7.17;;;;;;;10.44;100.00;154040.63;5075456;28;20434;-91
2021/05/12 04:43:54;;;;;;;9.97;7.40;;;;;;;10.45;100.00;154043.25;5058078;28;20484;-91
2021/05/12 04:46:29;;;;;;;6.70;5.70;;;;;;;10.40;100.00;154030.31;5073457;28;20942;-91
2021/05/12 04:49:06;;;;;;;11.73;6.83;;;;;;;10.43;100.00;154038.09;5057737;28;20415;-91
2021/05/12 04:51:41;;;;;;;7.00;6.17;;;;;;;10.43;100.00;154038.09;5074917;28;20418;-91
2021/05/12 04:54:16;;;;;;;12.70;6.70;;;;;;;10.44;100.00;154040.63;5073337;28;20949;-92
2021/05/12 04:56:51;;;;;;;9.20;7.93;;;;;;;10.49;100.00;154053.59;5070972;28;20434;-92
2021/05/12 04:59:27;;;;;;;7.17;6.30;;;;;;;10.50;100.00;154056.19;5072855;28;20481;-92
2021/05/12 05:02:24;;;;;;;9.53;6.50;;;;;;;10.52;100.00;154061.34;5068425;28;20486;-92
2021/05/12 05:04:59;;;;;;;8.80;6.60;;;;;;;10.53;100.00;154062.66;5071093;28;20470;-92
2021/05/12 05:07:34;;;;;;;7.90;6.70;;;;;;;10.49;100.00;154053.59;5073469;28;20434;-92
2021/05/12 05:10:10;;;;;;;8.97;6.80;;;;;;;10.43;100.00;154038.09;5054270;28;20449;-92
2021/05/12 05:12:44;;;;;;;6.53;5.33;;;;;;;10.46;100.00;154044.56;5040385;28;20446;-92
2021/05/12 05:15:20;;;;;;;13.07;6.70;;;;;;;10.42;100.00;154035.47;5073361;28;20454;-92
2021/05/12 05:17:57;;;;;;;7.30;5.90;;;;;;;10.42;100.00;154035.47;5056474;28;20446;-92
2021/05/12 05:20:33;;;;;;;8.40;5.70;;;;;;;10.45;100.00;154043.25;5072813;28;20446;-91
2021/05/12 05:23:08;;;;;;;6.03;5.03;;;;;;;10.44;100.00;154040.63;5074590;28;20429;-92
2021/05/12 05:25:43;;;;;;;6.23;5.30;;;;;;;10.42;100.00;154035.47;5075576;28;20491;-92
2021/05/12 05:28:18;;;;;;;9.37;5.67;;;;;;;10.43;100.00;154038.09;5057875;28;20427;-91
2021/05/12 05:30:54;;;;;;;6.50;5.17;;;;;;;10.46;100.00;154045.81;5041010;28;20442;-91
2021/05/12 05:33:59;;;;;;;6.90;5.20;;;;;;;10.43;100.00;154038.09;5065000;28;20810;-92
2021/05/12 05:36:52;;;;;;;6.53;5.07;;;;;;;10.44;100.00;154039.34;5075891;28;20438;-92
2021/05/12 05:39:46;;;;;;;6.23;5.30;;;;;;;10.45;100.00;154043.25;5076321;28;20793;-91
2021/05/12 05:42:39;;;;;;;7.77;5.70;;;;;;;10.44;100.00;154039.34;5076855;28;20532;-90
2021/05/12 05:45:33;;;;;;;8.03;5.50;;;;;;;10.41;100.00;154032.88;5076451;28;20480;-92
2021/05/12 05:48:28;;;;;;;6.33;5.10;;;;;;;10.45;100.00;154043.25;5078884;28;20439;-92
2021/05/12 05:51:23;;;;;;;6.07;5.47;;;;;;;10.41;100.00;154032.88;5077083;28;20442;-92
2021/05/12 05:54:17;;;;;;;5.67;4.70;;;;;;;10.43;100.00;154036.78;5077216;28;20441;-92
2021/05/12 05:57:15;;;;;;;7.60;4.90;;;;;;;10.46;100.00;154045.81;5077066;28;20443;-92
2021/05/12 06:00:10;;;;;;;7.20;4.97;;;;;;;10.50;100.00;154056.19;5076776;28;20473;-92
2021/05/12 06:02:52;;;;;;;5.63;5.07;;;;;;;10.54;100.00;154065.28;5078677;28;20799;-92
2021/05/12 06:05:48;;;;;;;5.37;4.87;;;;;;;10.51;100.00;154057.50;5076986;28;20504;-90
2021/05/12 06:08:42;;;;;;;11.30;6.00;;;;;;;10.48;100.00;154051.03;5067554;28;20847;-91
2021/05/12 06:11:36;;;;;;;5.17;4.13;;;;;;;10.55;100.00;154067.84;5087457;28;20819;-91
2021/05/12 06:14:29;;;;;;;6.20;5.27;;;;;;;10.54;100.00;154066.53;5069690;28;20455;-91
2021/05/12 06:17:24;;;;;;;5.93;4.33;;;;;;;10.59;100.00;154078.22;5099697;28;20513;-90
2021/05/12 06:20:18;;;;;;;6.30;4.10;;;;;;;10.58;100.00;154076.91;5066407;28;20440;-91
2021/05/12 06:23:12;;;;;;;5.37;3.77;;;;;;;10.61;100.00;154083.38;5057784;28;20426;-90
2021/05/12 06:26:14;;;;;;;4.47;3.60;;;;;;;10.58;100.00;154076.91;5072559;28;20473;-90
2021/05/12 06:29:07;;;;;;;6.00;4.40;;;;;;;10.58;100.00;154076.91;5073482;28;20966;-90
2021/05/12 06:32:01;;;;;;;7.77;4.40;;;;;;;10.64;100.00;154092.47;5077682;28;20454;-89
2021/05/12 06:35:11;;;;;;;4.93;4.40;;;;;;;10.60;100.00;154080.78;5019552;28;20435;-91
2021/05/12 06:38:05;;;;;;;4.93;3.80;;;;;;;10.59;100.00;154079.47;5055340;28;20434;-90
2021/05/12 06:40:41;;;;;;;5.47;3.80;;;;;;;10.61;100.00;154083.38;5054737;28;20536;-91
2021/05/12 06:43:16;;;;;;;5.23;3.60;;;;;;;10.62;100.00;154087.25;5041354;28;20452;-90
2021/05/12 06:45:52;;;;;;;8.17;4.43;;;;;;;10.65;100.00;154093.72;5041623;28;20580;-91
2021/05/12 06:48:27;;;;;;;6.90;4.17;;;;;;;10.68;100.00;154102.78;5040346;28;20442;-90
2021/05/12 06:51:02;;;;;;;6.10;4.03;;;;;;;10.68;100.00;154102.78;5043332;28;20457;-91
2021/05/12 06:53:37;;;;;;;5.60;3.90;;;;;;;10.71;100.00;154110.56;5065932;28;20440;-90
2021/05/12 06:56:14;;;;;;;3.93;3.50;;;;;;;10.70;100.00;154107.97;5074014;28;20449;-90
2021/05/12 06:58:49;;;;;;;3.90;3.50;;;;;;;10.76;100.00;154123.53;5068067;28;20479;-90
2021/05/12 07:01:24;;;;;;;5.70;2.93;;;;;;;10.73;100.00;154115.75;5077884;28;20548;-90
2021/05/12 07:03:59;;;;;;;5.60;3.50;;;;;;;10.75;100.00;154120.91;5077426;28;20441;-90
2021/05/12 07:06:34;;;;;;;3.90;3.50;;;;;;;10.77;100.00;154126.13;5049910;28;20539;-89
2021/05/12 07:09:10;;;;;;;7.57;3.70;;;;;;;10.79;100.00;154131.28;5062605;28;20528;-90
2021/05/12 07:11:46;;;;;;;4.70;3.57;;;;;;;10.82;100.00;154137.78;5062245;28;20438;-90
2021/05/12 07:14:23;;;;;;;3.60;3.30;;;;;;;10.83;100.00;154140.31;5101852;28;20429;-89
2021/05/12 07:17:03;;;;;;;5.13;4.10;;;;;;;10.80;100.00;154133.84;5101808;28;20790;-89
2021/05/12 07:19:39;;;;;;;3.93;3.27;;;;;;;10.85;100.00;154145.53;5090781;28;20449;-89
2021/05/12 07:22:20;;;;;;;4.00;3.60;;;;;;;10.87;100.00;154152.03;5085115;28;21134;-89
2021/05/12 07:24:55;;;;;;;6.13;3.93;;;;;;;10.91;100.00;154161.06;5096547;28;20559;-89
2021/05/12 07:27:32;;;;;;;5.13;3.53;;;;;;;10.88;100.00;154154.56;5074024;28;20524;-89
2021/05/12 07:30:08;;;;;;;4.90;4.10;;;;;;;10.89;100.00;154155.88;5082541;28;20531;-88
2021/05/12 07:32:45;;;;;;;6.17;4.00;;;;;;;10.87;100.00;154152.03;5073410;28;20445;-89
2021/05/12 07:35:20;;;;;;;4.33;3.30;;;;;;;10.88;100.00;154154.56;5087808;28;20444;-90
2021/05/12 07:37:56;;;;;;;6.70;3.50;;;;;;;10.85;100.00;154146.84;5104884;28;20433;-90
2021/05/12 07:40:33;;;;;;;3.00;2.70;;;;;;;10.84;100.00;154144.25;5084723;28;20457;-90
2021/05/12 07:43:10;;;;;;;4.37;3.53;;;;;;;10.89;100.00;154155.88;5070724;28;20447;-90
2021/05/12 07:45:46;;;;;;;5.20;3.87;;;;;;;10.90;100.00;154159.78;5074579;28;20493;-90
2021/05/12 07:48:22;;;;;;;4.80;3.50;;;;;;;10.97;100.00;154177.91;5072261;28;20494;-89
2021/05/12 07:50:57;;;;;;;5.43;3.30;;;;;;;11.00;100.00;154184.38;5066627;28;20449;-90
2021/05/12 07:53:32;;;;;;;5.80;3.70;;;;;;;11.04;100.00;154193.47;5068541;28;20817;-90
2021/05/12 07:56:07;;;;;;;3.77;3.37;;;;;;;11.04;100.00;154193.47;5077545;28;20449;-89
2021/05/12 07:58:44;;;;;;;3.80;3.40;;;;;;;11.04;100.00;154193.47;5078126;28;20450;-89
2021/05/12 08:01:21;;;;;;;4.53;4.10;;;;;;;11.01;100.00;154187.00;5074947;28;21109;-89
2021/05/12 08:03:56;;;;;;;3.57;3.17;;;;;;;10.96;100.00;154175.31;5063568;28;20451;-90
2021/05/12 08:06:31;;;;;;;3.90;3.40;;;;;;;10.91;100.00;154162.34;5086448;28;20790;-87
2021/05/12 08:09:08;;;;;;;4.43;3.00;;;;;;;10.89;100.00;154157.19;5061844;28;20567;-90
2021/05/12 08:11:43;;;;;;;5.30;3.37;;;;;;;10.87;100.00;154152.03;5076970;28;20419;-89
2021/05/12 08:14:20;;;;;;;4.40;3.17;;;;;;;10.85;100.00;154146.84;5076250;28;20442;-89
2021/05/12 08:16:55;;;;;;;4.23;3.30;;;;;;;10.81;100.00;154136.47;5074903;28;20439;-90
2021/05/12 08:19:30;;;;;;;4.50;3.60;;;;;;;10.77;100.00;154124.81;5059087;28;20837;-89
2021/05/12 08:22:08;;;;;;;4.33;3.23;;;;;;;10.76;100.00;154123.53;5089076;28;21017;-89
2021/05/12 08:24:44;;;;;;;6.20;3.70;;;;;;;10.76;100.00;154122.22;5067178;28;20493;-89
2021/05/12 08:27:19;;;;;;;4.40;3.13;;;;;;;10.79;100.00;154130.00;5086199;28;20421;-87
2021/05/12 08:29:59;;;;;;;7.50;4.70;;;;;;;10.82;100.00;154137.78;5081997;28;20799;-87
2021/05/12 08:32:35;;;;;;;4.13;3.70;;;;;;;10.82;100.00;154139.06;5066308;28;20445;-87
2021/05/12 08:35:10;;;;;;;3.53;3.20;;;;;;;10.80;100.00;154133.84;5075891;28;20801;-89
2021/05/12 08:37:45;;;;;;;5.73;3.60;;;;;;;10.87;100.00;154152.03;5041494;28;20446;-87
2021/05/12 08:40:21;;;;;;;4.53;3.63;;;;;;;10.83;100.00;154141.63;5057755;28;20480;-88
2021/05/12 08:42:57;;;;;;;4.50;3.83;;;;;;;10.84;100.00;154142.94;5079595;28;20904;-87
2021/05/12 08:45:35;;;;;;;5.10;3.80;;;;;;;10.83;100.00;154141.63;5068011;28;20482;-88
2021/05/12 08:48:13;;;;;;;4.93;3.37;;;;;;;10.85;100.00;154146.84;5086034;28;20438;-87
2021/05/12 08:50:49;;;;;;;3.97;3.57;;;;;;;10.92;100.00;154164.97;5056048;28;20500;-88
2021/05/12 08:53:25;;;;;;;5.37;4.17;;;;;;;10.92;100.00;154163.66;5076002;28;20443;-87
2021/05/12 08:56:01;;;;;;;5.00;2.97;;;;;;;10.96;100.00;154175.31;5078078;28;20460;-88
2021/05/12 08:58:36;;;;;;;5.57;3.23;;;;;;;11.05;100.00;154196.03;5057170;28;20446;-88
2021/05/12 09:01:12;;;;;;;5.20;3.60;;;;;;;11.05;100.00;154196.03;5085499;28;20447;-88
2021/05/12 09:03:47;;;;;;;5.73;3.17;;;;;;;11.12;100.00;154215.44;5101910;28;20437;-88
2021/05/12 09:06:23;;;;;;;3.30;3.00;;;;;;;11.15;100.00;154223.22;5088400;28;20460;-89
2021/05/12 09:08:59;;;;;;;4.30;3.37;;;;;;;11.11;100.00;154212.88;5070991;28;20422;-89
2021/05/12 09:11:34;;;;;;;4.30;3.90;;;;;;;11.13;100.00;154216.75;5062973;28;20448;-89
2021/05/12 09:14:24;;;;;;;3.27;2.90;;;;;;;11.21;100.00;154237.47;5052150;28;20442;-88
2021/05/12 09:17:01;;;;;;;3.87;3.47;;;;;;;11.24;100.00;154246.56;5072414;28;20935;-88
2021/05/12 09:19:36;;;;;;;3.87;3.00;;;;;;;11.22;100.00;154241.41;5084492;28;20474;-88
2021/05/12 09:22:11;;;;;;;4.20;3.63;;;;;;;11.17;100.00;154228.44;5074147;28;20462;-89
2021/05/12 09:24:46;;;;;;;4.97;3.10;;;;;;;11.20;100.00;154234.94;5083061;28;20472;-89
2021/05/12 09:27:23;;;;;;;3.93;3.03;;;;;;;11.15;99.34;154221.94;5074122;28;20832;-88
2021/05/12 09:29:59;;;;;;;2.53;2.33;;;;;;;11.21;99.49;154237.47;5076143;28;20437;-88
2021/05/12 09:32:43;;;;;;;3.63;2.97;;;;;;;11.25;99.91;154247.88;5060902;28;20941;-89
2021/05/12 09:35:23;;;;;;;5.00;4.13;;;;;;;11.22;100.00;154240.09;5075752;28;20445;-89
2021/05/12 09:37:58;;;;;;;4.47;3.57;;;;;;;11.26;100.00;154250.44;5093532;28;20442;-89
2021/05/12 09:40:33;;;;;;;4.70;3.30;;;;;;;11.23;99.48;154243.97;5072099;28;20452;-89
2021/05/12 09:43:08;;;;;;;4.27;2.90;;;;;;;11.25;98.64;154247.88;5075676;28;20428;-89
2021/05/12 09:45:43;;;;;;;5.40;3.00;;;;;;;11.22;99.84;154241.41;5073556;28;20474;-89
2021/05/12 09:48:20;;;;;;;3.90;3.30;;;;;;;11.28;100.00;154256.91;5084718;28;20445;-89
2021/05/12 09:50:57;;;;;;;3.77;3.23;;;;;;;11.39;100.00;154284.13;5072784;28;20937;-88
2021/05/12 09:53:32;;;;;;;4.53;3.87;;;;;;;11.42;99.57;154291.91;5067604;28;20465;-89
2021/05/12 09:56:09;;;;;;;3.80;3.40;;;;;;;11.45;100.00;154299.69;5073561;28;20446;-89
2021/05/12 09:58:55;;;;;;;4.20;3.80;;;;;;;11.40;98.10;154286.72;5084853;28;20432;-88
2021/05/12 10:01:41;;;;;;;3.87;3.27;;;;;;;11.42;99.94;154293.19;5099255;28;20445;-88
2021/05/12 10:04:39;;;;;;;3.37;3.07;;;;;;;11.44;97.93;154297.06;5071975;28;21004;-88
2021/05/12 10:07:16;;;;;;;4.37;3.97;;;;;;;11.40;96.47;154286.72;5079381;28;20789;-87
2021/05/12 10:09:52;;;;;;;3.60;3.17;;;;;;;11.50;99.51;154312.63;5079263;28;20453;-88
2021/05/12 10:12:27;;;;;;;5.23;3.60;;;;;;;11.46;94.83;154302.28;5079777;28;20521;-89
2021/05/12 10:15:02;;;;;;;4.07;3.37;;;;;;;11.47;96.66;154306.16;5066256;28;20458;-90
2021/05/12 10:17:37;;;;;;;5.10;3.70;;;;;;;11.50;96.88;154312.63;5083617;28;20785;-89
2021/05/12 10:20:13;;;;;;;5.40;4.47;;;;;;;11.52;96.68;154317.81;5073700;28;20454;-89
2021/05/12 10:22:49;;;;;;;4.30;3.67;;;;;;;11.50;97.30;154313.94;5081226;28;20449;-89
2021/05/12 10:25:24;;;;;;;4.30;3.40;;;;;;;11.50;95.41;154312.63;5064231;28;20479;-90
2021/05/12 10:28:02;;;;;;;3.93;3.50;;;;;;;11.53;97.30;154320.41;5080170;28;20789;-90
2021/05/12 10:30:36;;;;;;;4.03;3.60;;;;;;;11.58;96.64;154333.38;5061005;28;20451;-91
2021/05/12 10:33:12;;;;;;;4.10;3.03;;;;;;;11.68;98.62;154359.28;5080666;28;20433;-90
2021/05/12 10:35:48;;;;;;;3.33;3.00;;;;;;;11.73;97.74;154371.03;5078087;28;20509;-90
2021/05/12 10:38:30;;;;;;;6.30;3.57;;;;;;;11.73;96.91;154372.28;5071423;28;20445;-90
2021/05/12 10:41:05;;;;;;;9.53;3.73;;;;;;;11.82;97.49;154395.63;5077658;28;20459;-90
2021/05/12 10:43:44;;;;;;;3.93;3.20;;;;;;;11.87;96.74;154407.28;5088568;28;20436;-90
2021/05/12 10:46:28;;;;;;;3.93;2.90;;;;;;;11.85;96.36;154402.09;5078220;28;20985;-90
2021/05/12 10:49:03;;;;;;;5.07;3.40;;;;;;;11.86;99.31;154405.97;5088047;28;20424;-90
2021/05/12 10:51:47;;;;;;;4.27;3.30;;;;;;;11.72;92.74;154368.41;5066492;28;20436;-89
2021/05/12 10:54:39;;;;;;;8.87;3.80;;;;;;;11.65;92.72;154351.50;5067095;28;20459;-90
2021/05/12 10:57:44;;;;;;;24.13;5.00;;;;;;;11.67;97.13;154356.72;5095659;28;20776;-89
2021/05/12 11:00:21;;;;;;;3.57;2.87;;;;;;;11.63;93.37;154346.31;5042015;28;20491;-90
2021/05/12 11:03:01;;;;;;;5.33;2.77;;;;;;;11.67;95.02;154355.41;5081910;28;20427;-89
2021/05/12 11:05:43;;;;;;;4.70;3.77;;;;;;;11.63;96.16;154346.31;5057280;28;20476;-89
2021/05/12 11:08:20;;;;;;;7.00;3.20;;;;;;;11.62;93.78;154343.75;5083393;28;20904;-89
2021/05/12 11:10:59;;;;;;;4.57;3.40;;;;;;;11.60;92.75;154338.53;5077007;28;20452;-89
2021/05/12 11:13:35;;;;;;;3.10;2.50;;;;;;;11.65;94.56;154351.50;5081799;28;20962;-88
2021/05/12 11:16:22;;;;;;;4.50;2.90;;;;;;;11.67;94.04;154356.72;5072118;28;20855;-88
2021/05/12 11:18:57;;;;;;;3.80;3.00;;;;;;;11.63;93.56;154347.63;5076964;28;20439;-88
2021/05/12 11:21:37;;;;;;;4.37;3.00;;;;;;;11.71;96.05;154367.09;5078011;28;20454;-89
2021/05/12 11:24:21;;;;;;;3.87;3.03;;;;;;;11.70;93.08;154364.53;5087936;28;20440;-88
2021/05/12 11:27:16;;;;;;;4.43;3.13;;;;;;;11.75;94.97;154377.50;5095589;28;20855;-89
2021/05/12 11:32:45;;;;;;;3.80;2.80;;;;;;;11.84;94.52;154400.78;5075980;28;20429;-90
2021/05/12 11:35:20;;;;;;;4.57;3.20;;;;;;;11.93;90.71;154422.84;5077630;28;20486;-89
2021/05/12 11:37:55;;;;;;;3.67;3.17;;;;;;;12.03;94.85;154450.06;5095930;28;20772;-90
2021/05/12 11:40:31;;;;;;;3.00;2.70;;;;;;;12.05;93.40;154453.94;5058748;28;20491;-89
2021/05/12 11:43:06;;;;;;;5.60;3.63;;;;;;;12.00;87.06;154442.28;5070742;28;20461;-90
2021/05/12 11:45:41;;;;;;;5.17;3.30;;;;;;;12.09;86.36;154465.63;5057550;28;20483;-87
2021/05/12 11:48:22;;;;;;;5.47;3.20;;;;;;;12.28;92.11;154513.59;5107380;28;20441;-88
2021/05/12 11:50:57;;;;;;;4.00;3.17;;;;;;;12.34;91.26;154527.88;5077463;28;20448;-87
2021/05/12 11:53:36;;;;;;;6.20;3.07;;;;;;;12.49;92.09;154568.06;5092438;28;20429;-87
2021/05/12 11:56:12;;;;;;;4.73;3.50;;;;;;;12.62;91.02;154601.78;5092128;28;20449;-88
2021/05/12 11:58:53;;;;;;;3.13;2.83;;;;;;;12.70;93.08;154621.22;5083989;28;20507;-89
2021/05/12 12:01:34;;;;;;;3.40;2.90;;;;;;;12.79;90.58;154645.84;5086316;28;20444;-89
2021/05/12 12:04:15;;;;;;;5.13;3.50;;;;;;;12.93;88.83;154680.88;5076557;28;20942;-89
2021/05/12 12:06:51;;;;;;;7.10;3.40;;;;;;;12.97;89.84;154691.28;5061184;28;20426;-89
2021/05/12 12:09:27;;;;;;;5.50;3.20;;;;;;;13.04;90.35;154709.44;5075885;28;20496;-89
2021/05/12 12:12:03;;;;;;;3.30;2.77;;;;;;;13.10;88.76;154723.75;5076236;28;20436;-89